createdAt,value
2018-04-01T00:00:38.919Z,40.03
2018-04-01T00:03:07.073Z,43.35
2018-04-01T00:05:34.065Z,44.08
2018-04-01T00:08:01.119Z,46.20
2018-04-01T00:10:28.143Z,44.10
2018-04-01T00:12:55.128Z,44.83
2018-04-01T00:15:22.181Z,51.30
2018-04-01T00:17:50.299Z,49.00
2018-04-01T00:20:17.291Z,49.70
2018-04-01T00:22:44.277Z,53.92
2018-04-01T00:25:12.083Z,59.58
2018-04-01T00:27:39.073Z,55.03
2018-04-01T00:30:06.051Z,51.28
2018-04-01T00:32:33.047Z,57.60
2018-04-01T00:35:00.028Z,60.92
2018-04-01T00:37:27.784Z,56.55
2018-04-01T00:39:54.781Z,49.95
2018-04-01T00:42:21.822Z,49.97
2018-04-01T00:44:48.871Z,50.63
2018-04-01T00:47:15.869Z,48.40
2018-04-01T00:49:43.611Z,49.38
2018-04-01T00:52:10.600Z,50.38
2018-04-01T00:54:37.588Z,46.33
2018-04-01T00:57:04.564Z,48.58
2018-04-01T00:59:31.660Z,51.95
2018-04-01T01:01:58.939Z,47.70
2018-04-01T01:04:25.916Z,47.95
2018-04-01T01:06:53.656Z,48.92
2018-04-01T01:09:21.076Z,49.00
2018-04-01T01:11:48.062Z,48.08
2018-04-01T01:14:15.035Z,46.78
2018-04-01T01:16:42.799Z,43.47
2018-04-01T01:19:10.541Z,45.10
2018-04-01T01:21:37.539Z,44.65
2018-04-01T01:24:04.688Z,45.25
2018-04-01T01:26:31.667Z,45.50
2018-04-01T01:28:58.660Z,44.40
2018-04-01T01:31:25.931Z,48.70
2018-04-01T01:33:52.900Z,47.47
2018-04-01T01:36:19.870Z,47.35
2018-04-01T01:38:47.123Z,71.40
2018-04-01T01:41:14.543Z,74.75
2018-04-01T01:43:41.577Z,84.25
2018-04-01T01:46:08.612Z,49.53
2018-04-01T01:48:35.582Z,37.70
2018-04-01T01:51:02.568Z,36.63
2018-04-01T01:53:29.849Z,37.15
2018-04-01T01:55:56.826Z,33.47
2018-04-01T01:58:23.795Z,37.60
2018-04-01T02:00:50.808Z,34.95
2018-04-01T02:03:17.812Z,42.15
2018-04-01T02:05:45.547Z,39.50
2018-04-01T02:08:12.831Z,42.45
2018-04-01T02:10:40.630Z,48.10
2018-04-01T02:13:07.615Z,52.95
2018-04-01T02:15:34.606Z,46.30
2018-04-01T02:18:01.590Z,40.83
2018-04-01T02:20:28.573Z,34.95
2018-04-01T02:22:56.343Z,31.12
2018-04-01T02:25:24.090Z,30.75
2018-04-01T02:27:51.073Z,29.63
2018-04-01T02:30:18.392Z,27.40
2018-04-01T02:32:45.485Z,30.77
2018-04-01T02:35:12.484Z,25.58
2018-04-01T02:37:39.468Z,26.15
2018-04-01T02:40:06.444Z,27.65
2018-04-01T02:42:33.429Z,28.00
2018-04-01T02:45:01.487Z,29.45
2018-04-01T02:47:28.468Z,32.47
2018-04-01T02:49:55.448Z,28.77
2018-04-01T02:52:22.734Z,28.67
2018-04-01T02:54:49.773Z,28.45
2018-04-01T02:57:16.750Z,30.35
2018-04-01T02:59:43.824Z,27.55
2018-04-01T03:02:10.796Z,31.87
2018-04-01T03:04:37.797Z,30.42
2018-04-01T03:07:05.128Z,31.60
2018-04-01T03:09:32.871Z,30.50
2018-04-01T03:11:59.978Z,36.92
2018-04-01T03:14:26.975Z,36.13
2018-04-01T03:16:54.073Z,34.45
2018-04-01T03:19:21.056Z,34.65
2018-04-01T03:21:48.065Z,34.15
2018-04-01T03:24:15.061Z,37.42
2018-04-01T03:26:42.039Z,28.58
2018-04-01T03:29:09.382Z,32.38
2018-04-01T03:31:37.121Z,26.37
2018-04-01T03:34:04.888Z,26.95
2018-04-01T03:36:32.177Z,31.17
2018-04-01T03:38:59.159Z,33.10
2018-04-01T03:41:26.143Z,44.97
2018-04-01T03:43:53.907Z,30.58
2018-04-01T03:46:21.665Z,34.63
2018-04-01T03:48:48.645Z,33.22
2018-04-01T03:51:15.637Z,43.90
2018-04-01T03:53:42.628Z,39.25
2018-04-01T03:56:09.596Z,45.17
2018-04-01T03:58:36.912Z,50.08
2018-04-01T04:01:04.667Z,45.70
2018-04-01T04:03:32.415Z,45.08
2018-04-01T04:05:59.397Z,48.78
2018-04-01T04:08:26.376Z,48.70
2018-04-01T04:10:53.377Z,46.97
2018-04-01T04:13:21.533Z,46.08
2018-04-01T04:15:48.517Z,47.10
2018-04-01T04:18:15.487Z,53.80
2018-04-01T04:20:42.892Z,45.70
2018-04-01T04:23:10.689Z,42.97
2018-04-01T04:25:37.750Z,48.63
2018-04-01T04:28:04.736Z,41.75
2018-04-01T04:30:31.829Z,43.22
2018-04-01T04:32:58.803Z,41.97
2018-04-01T04:35:26.182Z,41.90
2018-04-01T04:37:53.174Z,41.15
2018-04-01T04:40:20.151Z,40.78
2018-04-01T04:42:47.143Z,42.88
2018-04-01T04:45:14.124Z,39.95
2018-04-01T04:47:41.641Z,42.75
2018-04-01T04:50:09.672Z,39.25
2018-04-01T04:52:36.659Z,44.63
2018-04-01T04:55:04.397Z,40.88
2018-04-01T04:57:32.163Z,44.25
2018-04-01T04:59:59.158Z,40.22
2018-04-01T05:02:26.367Z,34.13
2018-04-01T05:04:54.441Z,33.78
2018-04-01T05:07:22.178Z,32.95
2018-04-01T05:09:49.188Z,37.63
2018-04-01T05:12:16.178Z,34.70
2018-04-01T05:14:43.155Z,32.65
2018-04-01T05:17:10.162Z,33.85
2018-04-01T05:19:37.439Z,29.70
2018-04-01T05:22:05.192Z,29.77
2018-04-01T05:24:32.187Z,30.12
2018-04-01T05:26:59.191Z,32.30
2018-04-01T05:29:26.948Z,32.50
2018-04-01T05:31:53.942Z,28.83
2018-04-01T05:34:21.187Z,28.33
2018-04-01T05:36:48.192Z,33.30
2018-04-01T05:39:15.140Z,32.28
2018-04-01T05:41:43.976Z,33.05
2018-04-01T05:44:12.867Z,35.38
2018-04-01T05:46:41.756Z,33.55
2018-04-01T05:49:11.015Z,36.53
2018-04-01T05:51:39.956Z,45.17
2018-04-01T05:54:08.838Z,43.30
2018-04-01T05:56:37.829Z,47.05
2018-04-01T05:59:06.824Z,41.72
2018-04-01T06:01:35.705Z,46.35
2018-04-01T06:04:05.008Z,45.35
2018-04-01T06:06:34.007Z,62.40
2018-04-01T06:09:02.885Z,72.22
2018-04-01T06:11:32.054Z,67.03
2018-04-01T06:14:00.947Z,77.15
2018-04-01T06:16:29.827Z,92.78
2018-04-01T06:18:59.027Z,91.37
2018-04-01T06:21:27.911Z,90.87
2018-04-01T06:23:56.803Z,89.65
2018-04-01T06:26:25.691Z,89.70
2018-04-01T06:28:54.569Z,93.75
2018-04-01T06:31:23.459Z,88.72
2018-04-01T06:33:52.349Z,90.57
2018-04-01T06:36:21.243Z,98.03
2018-04-01T06:38:50.698Z,93.37
2018-04-01T06:41:19.867Z,93.37
2018-04-01T06:43:48.788Z,96.50
2018-04-01T06:46:17.670Z,94.40
2018-04-01T06:48:46.976Z,104.25
2018-04-01T06:51:15.855Z,44.50
2018-04-01T06:53:44.732Z,13.93
2018-04-01T06:56:13.648Z,11.55
2018-04-01T06:58:42.543Z,8.20
2018-04-01T07:01:11.419Z,7.40
2018-04-01T07:03:40.320Z,7.43
2018-04-01T07:06:09.206Z,7.65
2018-04-01T07:08:38.093Z,5.97
2018-04-01T07:11:07.280Z,6.93
2018-04-01T07:13:36.162Z,8.48
2018-04-01T07:16:05.053Z,6.75
2018-04-01T07:18:34.192Z,8.90
2018-04-01T07:21:03.079Z,8.10
2018-04-01T07:23:31.955Z,9.50
2018-04-01T07:26:01.251Z,10.38
2018-04-01T07:28:30.652Z,9.63
2018-04-01T07:30:59.646Z,10.90
2018-04-01T07:33:28.544Z,7.90
2018-04-01T07:35:57.427Z,9.82
2018-04-01T07:38:26.317Z,11.43
2018-04-01T07:40:55.579Z,11.43
2018-04-01T07:43:24.455Z,11.27
2018-04-01T07:45:53.332Z,10.70
2018-04-01T07:48:22.237Z,10.40
2018-04-01T07:50:51.142Z,11.75
2018-04-01T07:53:20.018Z,12.55
2018-04-01T07:55:48.900Z,8.02
2018-04-01T07:58:17.812Z,7.25
2018-04-01T08:00:46.744Z,9.70
2018-04-01T08:03:15.628Z,8.38
2018-04-01T08:05:44.623Z,8.70
2018-04-01T08:08:13.614Z,9.32
2018-04-01T08:10:42.508Z,10.13
2018-04-01T08:13:11.395Z,10.38
2018-04-01T08:15:40.389Z,9.32
2018-04-01T08:18:09.647Z,9.50
2018-04-01T08:20:38.492Z,8.00
2018-04-01T08:23:07.379Z,8.68
2018-04-01T08:25:36.627Z,9.30
2018-04-01T08:28:05.543Z,9.00
2018-04-01T08:30:34.422Z,9.63
2018-04-01T08:33:03.311Z,10.30
2018-04-01T08:35:32.196Z,10.43
2018-04-01T08:38:01.105Z,10.98
2018-04-01T08:40:29.989Z,12.13
2018-04-01T08:42:58.908Z,12.35
2018-04-01T08:45:27.791Z,13.13
2018-04-01T08:47:56.691Z,13.95
2018-04-01T08:50:25.575Z,16.48
2018-04-01T08:52:54.950Z,18.27
2018-04-01T08:55:23.897Z,14.85
2018-04-01T08:57:52.799Z,16.00
2018-04-01T09:00:21.682Z,17.27
2018-04-01T09:02:50.579Z,16.65
2018-04-01T09:05:19.482Z,17.65
2018-04-01T09:07:48.449Z,19.20
2018-04-01T09:10:17.937Z,22.45
2018-04-01T09:12:46.844Z,25.65
2018-04-01T09:15:15.724Z,25.92
2018-04-01T09:17:44.649Z,25.90
2018-04-01T09:20:13.627Z,22.90
2018-04-01T09:22:42.514Z,26.15
2018-04-01T09:25:11.743Z,23.73
2018-04-01T09:27:40.636Z,23.67
2018-04-01T09:30:09.528Z,27.00
2018-04-01T09:32:38.438Z,29.08
2018-04-01T09:35:07.321Z,30.77
2018-04-01T09:37:36.197Z,26.87
2018-04-01T09:40:05.371Z,28.70
2018-04-01T09:42:34.249Z,26.92
2018-04-01T09:45:03.143Z,30.90
2018-04-01T09:47:32.110Z,32.55
2018-04-01T09:50:01.034Z,32.72
2018-04-01T09:52:29.887Z,32.33
2018-04-01T09:54:58.800Z,36.30
2018-04-01T09:57:27.672Z,33.53
2018-04-01T09:59:56.575Z,34.28
2018-04-01T10:02:25.735Z,32.75
2018-04-01T10:05:00.735Z,35.42
2018-04-01T10:07:29.311Z,36.47
2018-04-01T10:09:57.543Z,36.15
2018-04-01T10:12:25.016Z,33.13
2018-04-01T10:14:52.800Z,34.65
2018-04-01T10:17:20.269Z,39.72
2018-04-01T10:19:48.519Z,33.42
2018-04-01T10:22:15.999Z,35.38
2018-04-01T10:24:44.317Z,35.35
2018-04-01T10:27:11.978Z,39.35
2018-04-01T10:29:39.457Z,36.35
2018-04-01T10:32:06.937Z,33.05
2018-04-01T10:34:34.448Z,33.42
2018-04-01T10:37:01.931Z,33.58
2018-04-01T10:39:29.427Z,36.15
2018-04-01T10:41:57.669Z,37.38
2018-04-01T10:44:25.180Z,37.22
2018-04-01T10:46:52.761Z,32.88
2018-04-01T10:49:20.999Z,36.90
2018-04-01T10:51:48.883Z,29.95
2018-04-01T10:54:16.256Z,32.10
2018-04-01T10:56:43.230Z,29.08
2018-04-01T10:59:10.247Z,30.62
2018-04-01T11:01:37.298Z,31.45
2018-04-01T11:04:05.464Z,36.35
2018-04-01T11:06:32.852Z,39.58
2018-04-01T11:08:59.832Z,38.35
2018-04-01T11:11:27.275Z,40.45
2018-04-01T11:13:55.024Z,42.20
2018-04-01T11:16:22.408Z,38.95
2018-04-01T11:18:49.775Z,36.63
2018-04-01T11:21:17.120Z,39.30
2018-04-01T11:23:44.112Z,41.22
2018-04-01T11:26:11.096Z,38.15
2018-04-01T11:28:38.391Z,39.35
2018-04-01T11:31:05.437Z,39.55
2018-04-01T11:33:32.816Z,34.97
2018-04-01T11:35:59.897Z,32.03
2018-04-01T11:38:26.900Z,36.63
2018-04-01T11:40:54.655Z,34.50
2018-04-01T11:43:22.049Z,40.47
2018-04-01T11:45:49.036Z,41.83
2018-04-01T11:48:16.565Z,38.00
2018-04-01T11:50:44.069Z,38.85
2018-04-01T11:53:12.200Z,38.53
2018-04-01T11:55:39.939Z,44.80
2018-04-01T11:58:06.941Z,35.53
2018-04-01T12:00:34.315Z,35.47
2018-04-01T12:03:01.701Z,35.85
2018-04-01T12:05:29.473Z,32.17
2018-04-01T12:07:56.852Z,37.67
2018-04-01T12:10:23.862Z,30.65
2018-04-01T12:12:51.380Z,27.45
2018-04-01T12:15:18.353Z,31.62
2018-04-01T12:17:45.785Z,38.40
2018-04-01T12:20:13.080Z,40.17
2018-04-01T12:22:40.065Z,47.08
2018-04-01T12:25:07.441Z,41.97
2018-04-01T12:27:34.432Z,48.47
2018-04-01T12:30:01.812Z,45.08
2018-04-01T12:32:28.800Z,48.33
2018-04-01T12:34:56.095Z,45.50
2018-04-01T12:37:24.060Z,54.55
2018-04-01T12:39:51.464Z,50.03
2018-04-01T12:42:19.256Z,55.35
2018-04-01T12:44:46.240Z,58.87
2018-04-01T12:47:13.620Z,56.42
2018-04-01T12:49:41.237Z,62.55
2018-04-01T12:52:08.204Z,63.55
2018-04-01T12:54:35.951Z,59.47
2018-04-01T12:57:03.715Z,65.28
2018-04-01T12:59:31.473Z,63.13
2018-04-01T13:01:58.475Z,62.95
2018-04-01T13:04:25.475Z,62.28
2018-04-01T13:06:53.222Z,69.18
2018-04-01T13:09:20.742Z,58.35
2018-04-01T13:11:47.782Z,65.80
2018-04-01T13:14:14.755Z,65.05
2018-04-01T13:16:41.746Z,71.80
2018-04-01T13:19:09.072Z,67.37
2018-04-01T13:21:36.824Z,70.78
2018-04-01T13:24:04.204Z,66.12
2018-04-01T13:26:31.960Z,75.18
2018-04-01T13:28:59.344Z,82.78
2018-04-01T13:31:26.324Z,77.25
2018-04-01T13:33:54.030Z,90.10
2018-04-01T13:36:21.767Z,89.93
2018-04-01T13:38:48.745Z,90.97
2018-04-01T13:41:17.305Z,96.68
2018-04-01T13:43:45.055Z,95.28
2018-04-01T13:46:12.442Z,93.97
2018-04-01T13:48:40.472Z,93.45
2018-04-01T13:51:07.462Z,95.07
2018-04-01T13:53:35.208Z,95.18
2018-04-01T13:56:02.989Z,103.70
2018-04-01T13:58:30.740Z,102.18
2018-04-01T14:00:58.483Z,95.57
2018-04-01T14:03:25.903Z,114.30
2018-04-01T14:05:52.883Z,105.07
2018-04-01T14:08:20.279Z,100.40
2018-04-01T14:10:47.269Z,109.68
2018-04-01T14:13:14.247Z,101.62
2018-04-01T14:15:41.624Z,103.50
2018-04-01T14:18:08.622Z,99.30
2018-04-01T14:20:35.600Z,101.03
2018-04-01T14:23:03.348Z,101.93
2018-04-01T14:25:30.764Z,99.57
2018-04-01T14:27:58.876Z,102.93
2018-04-01T14:30:25.847Z,106.47
2018-04-01T14:32:53.244Z,99.00
2018-04-01T14:35:20.238Z,97.35
2018-04-01T14:37:47.974Z,108.32
2018-04-01T14:40:15.369Z,103.50
2018-04-01T14:42:42.856Z,101.97
2018-04-01T14:45:10.242Z,90.25
2018-04-01T14:47:37.518Z,98.93
2018-04-01T14:50:04.927Z,102.43
2018-04-01T14:52:32.369Z,92.97
2018-04-01T14:55:00.217Z,103.87
2018-04-01T14:57:27.613Z,101.12
2018-04-01T14:59:54.604Z,101.72
2018-04-01T15:02:22.363Z,108.65
2018-04-01T15:04:49.737Z,115.62
2018-04-01T15:07:16.716Z,120.10
2018-04-01T15:09:44.114Z,118.82
2018-04-01T15:12:11.093Z,117.15
2018-04-01T15:14:38.090Z,107.95
2018-04-01T15:17:05.532Z,113.35
2018-04-01T15:19:32.530Z,118.37
2018-04-01T15:21:59.580Z,104.47
2018-04-01T15:24:26.905Z,106.82
2018-04-01T15:26:54.664Z,106.00
2018-04-01T15:29:21.639Z,103.95
2018-04-01T15:31:48.643Z,97.07
2018-04-01T15:34:16.029Z,96.15
2018-04-01T15:36:43.825Z,84.82
2018-04-01T15:39:11.207Z,85.57
2018-04-01T15:41:38.183Z,75.47
2018-04-01T15:44:05.933Z,66.10
2018-04-01T15:46:33.038Z,68.12
2018-04-01T15:49:00.801Z,75.95
2018-04-01T15:51:28.549Z,58.67
2018-04-01T15:53:55.955Z,54.30
2018-04-01T15:56:22.975Z,55.80
2018-04-01T15:58:49.956Z,57.83
2018-04-01T16:01:17.422Z,59.72
2018-04-01T16:03:44.794Z,55.38
2018-04-01T16:06:12.696Z,54.03
2018-04-01T16:08:40.485Z,52.22
2018-04-01T16:11:08.224Z,54.13
2018-04-01T16:13:35.297Z,56.58
2018-04-01T16:16:02.626Z,53.17
2018-04-01T16:18:29.992Z,53.70
2018-04-01T16:20:57.028Z,56.92
2018-04-01T16:23:24.053Z,54.90
2018-04-01T16:25:51.424Z,51.22
2018-04-01T16:28:18.403Z,63.10
2018-04-01T16:30:45.771Z,56.37
2018-04-01T16:33:13.144Z,53.78
2018-04-01T16:35:40.636Z,56.80
2018-04-01T16:38:08.029Z,55.85
2018-04-01T16:40:35.019Z,51.42
2018-04-01T16:43:01.996Z,51.65
2018-04-01T16:45:30.111Z,56.40
2018-04-01T16:47:57.861Z,55.67
2018-04-01T16:50:25.236Z,55.50
2018-04-01T16:52:52.579Z,40.40
2018-04-01T16:55:20.340Z,44.40
2018-04-01T16:57:47.435Z,47.75
2018-04-01T17:00:14.413Z,44.15
2018-04-01T17:02:41.400Z,45.45
2018-04-01T17:05:08.819Z,47.58
2018-04-01T17:07:37.403Z,51.25
2018-04-01T17:10:04.410Z,53.67
2018-04-01T17:12:31.459Z,38.42
2018-04-01T17:14:58.842Z,46.78
2018-04-01T17:17:26.270Z,45.53
2018-04-01T17:19:53.651Z,41.97
2018-04-01T17:22:21.048Z,45.03
2018-04-01T17:24:48.420Z,45.47
2018-04-01T17:27:15.419Z,47.75
2018-04-01T17:29:42.664Z,54.45
2018-04-01T17:32:10.495Z,44.80
2018-04-01T17:34:38.679Z,44.47
2018-04-01T17:37:06.331Z,35.78
2018-04-01T17:39:33.704Z,39.95
2018-04-01T17:42:01.089Z,44.80
2018-04-01T17:44:28.471Z,31.75
2018-04-01T17:46:55.868Z,38.10
2018-04-01T17:49:22.850Z,32.45
2018-04-01T17:51:49.943Z,31.48
2018-04-01T17:54:16.981Z,31.92
2018-04-01T17:56:43.980Z,36.33
2018-04-01T17:59:11.361Z,29.35
2018-04-01T18:01:38.385Z,34.47
2018-04-01T18:04:05.372Z,35.40
2018-04-01T18:06:33.103Z,45.45
2018-04-01T18:09:00.512Z,39.80
2018-04-01T18:11:28.630Z,51.17
2018-04-01T18:13:56.130Z,49.30
2018-04-01T18:16:23.516Z,56.53
2018-04-01T18:18:50.495Z,58.47
2018-04-01T18:21:17.900Z,52.28
2018-04-01T18:23:44.932Z,55.30
2018-04-01T18:26:12.311Z,59.47
2018-04-01T18:28:40.012Z,53.42
2018-04-01T18:31:07.771Z,55.60
2018-04-01T18:33:36.404Z,48.13
2018-04-01T18:36:03.712Z,47.72
2018-04-01T18:38:31.462Z,53.47
2018-04-01T18:40:58.888Z,50.83
2018-04-01T18:43:26.280Z,51.95
2018-04-01T18:45:54.025Z,53.97
2018-04-01T18:48:21.025Z,49.30
2018-04-01T18:50:49.161Z,45.40
2018-04-01T18:53:16.924Z,51.08
2018-04-01T18:55:43.896Z,49.20
2018-04-01T18:58:10.992Z,47.88
2018-04-01T19:00:38.768Z,46.90
2018-04-01T19:03:06.147Z,49.00
2018-04-01T19:05:33.906Z,49.83
2018-04-01T19:08:01.665Z,57.22
2018-04-01T19:10:28.640Z,43.45
2018-04-01T19:12:56.020Z,37.33
2018-04-01T19:15:24.136Z,39.88
2018-04-01T19:17:52.428Z,40.28
2018-04-01T19:20:20.743Z,40.55
2018-04-01T19:22:48.211Z,33.85
2018-04-01T19:25:15.699Z,28.27
2018-04-01T19:27:43.187Z,27.48
2018-04-01T19:30:11.056Z,24.75
2018-04-01T19:32:38.633Z,25.45
2018-04-01T19:35:06.868Z,39.80
2018-04-01T19:37:35.107Z,56.67
2018-04-01T19:40:02.706Z,91.68
2018-04-01T19:42:30.189Z,61.58
2018-04-01T19:44:58.404Z,40.25
2018-04-01T19:47:26.649Z,29.37
2018-04-01T19:49:54.262Z,28.62
2018-04-01T19:52:21.740Z,26.40
2018-04-01T19:54:49.332Z,27.08
2018-04-01T19:57:16.812Z,22.90
2018-04-01T19:59:44.284Z,27.85
2018-04-01T20:02:11.748Z,23.48
2018-04-01T20:04:39.235Z,22.50
2018-04-01T20:07:06.763Z,23.85
2018-04-01T20:09:34.231Z,27.58
2018-04-01T20:12:02.547Z,27.25
2018-04-01T20:14:30.015Z,21.48
2018-04-01T20:16:57.480Z,23.23
2018-04-01T20:19:24.972Z,24.37
2018-04-01T20:21:53.220Z,23.85
2018-04-01T20:24:20.684Z,27.92
2018-04-01T20:26:48.163Z,24.05
2018-04-01T20:29:16.418Z,27.15
2018-04-01T20:31:44.288Z,23.48
2018-04-01T20:34:11.775Z,27.60
2018-04-01T20:36:40.008Z,28.83
2018-04-01T20:39:07.532Z,26.60
2018-04-01T20:41:35.026Z,25.77
2018-04-01T20:44:02.472Z,26.90
2018-04-01T20:46:30.009Z,27.23
2018-04-01T20:48:57.502Z,24.10
2018-04-01T20:51:25.024Z,24.37
2018-04-01T20:53:52.488Z,26.98
2018-04-01T20:56:20.005Z,31.02
2018-04-01T20:58:47.496Z,31.50
2018-04-01T21:01:15.857Z,30.50
2018-04-01T21:03:43.340Z,28.62
2018-04-01T21:06:10.821Z,29.35
2018-04-01T21:08:38.324Z,27.05
2018-04-01T21:11:06.884Z,29.02
2018-04-01T21:13:34.405Z,32.25
2018-04-01T21:16:02.610Z,28.23
2018-04-01T21:18:30.088Z,28.00
2018-04-01T21:20:57.984Z,27.20
2018-04-01T21:23:26.607Z,33.08
2018-04-01T21:25:54.111Z,32.10
2018-04-01T21:28:21.599Z,32.55
2018-04-01T21:30:49.068Z,32.42
2018-04-01T21:33:16.554Z,30.95
2018-04-01T21:35:44.814Z,29.75
2018-04-01T21:38:12.280Z,24.42
2018-04-01T21:40:39.760Z,28.98
2018-04-01T21:43:07.632Z,33.22
2018-04-01T21:45:35.096Z,32.58
2018-04-01T21:48:02.583Z,30.77
2018-04-01T21:50:30.046Z,30.95
2018-04-01T21:52:57.509Z,27.15
2018-04-01T21:55:25.295Z,31.40
2018-04-01T21:57:52.756Z,30.12
2018-04-01T22:00:20.215Z,27.65
2018-04-01T22:02:48.789Z,29.02
2018-04-01T22:05:16.251Z,29.30
2018-04-01T22:07:43.712Z,28.95
2018-04-01T22:10:12.292Z,31.12
2018-04-01T22:12:39.775Z,29.73
2018-04-01T22:15:07.999Z,30.42
2018-04-01T22:17:36.029Z,29.50
2018-04-01T22:20:03.600Z,29.33
2018-04-01T22:22:31.068Z,29.40
2018-04-01T22:24:58.871Z,30.02
2018-04-01T22:27:26.736Z,29.33
2018-04-01T22:29:54.203Z,26.80
2018-04-01T22:32:22.830Z,31.48
2018-04-01T22:34:50.301Z,30.62
2018-04-01T22:37:17.765Z,30.85
2018-04-01T22:39:45.663Z,27.42
2018-04-01T22:42:13.583Z,27.33
2018-04-01T22:44:41.056Z,31.15
2018-04-01T22:47:08.852Z,28.10
2018-04-01T22:49:36.312Z,31.15
2018-04-01T22:52:04.542Z,30.65
2018-04-01T22:54:32.012Z,31.62
2018-04-01T22:56:59.495Z,26.87
2018-04-01T22:59:27.737Z,27.10
2018-04-01T23:01:55.532Z,28.23
2018-04-01T23:04:23.779Z,28.52
2018-04-01T23:06:51.644Z,32.75
2018-04-01T23:09:19.231Z,31.20
2018-04-01T23:11:46.727Z,25.95
2018-04-01T23:14:14.200Z,32.00
2018-04-01T23:16:41.676Z,33.40
2018-04-01T23:19:09.147Z,26.25
2018-04-01T23:21:36.628Z,28.23
2018-04-01T23:24:05.423Z,28.55
2018-04-01T23:26:33.657Z,31.10
2018-04-01T23:29:01.132Z,27.50
2018-04-01T23:31:28.617Z,27.60
2018-04-01T23:33:56.851Z,32.15
2018-04-01T23:36:24.379Z,30.25
2018-04-01T23:38:52.003Z,32.80
2018-04-01T23:41:20.236Z,33.42
2018-04-01T23:43:47.705Z,31.58
2018-04-01T23:46:15.464Z,30.62
2018-04-01T23:48:42.941Z,26.92
2018-04-01T23:51:10.411Z,23.80
2018-04-01T23:53:38.657Z,29.95
2018-04-01T23:56:06.131Z,29.05
2018-04-01T23:58:33.591Z,30.83
